sensor_id;sensor_type;location;lat;lon;timestamp;P1;durP1;ratioP1;P2;durP2;ratioP2
42700;SDS011;28316;49.504;8.526;2024-03-23T00:55:58;7.80;;;3.78;;
42700;SDS011;28316;49.504;8.526;2024-03-23T00:58:24;5.50;;;3.25;;
42700;SDS011;28316;49.504;8.526;2024-03-23T01:00:50;10.48;;;3.80;;
42700;SDS011;28316;49.504;8.526;2024-03-23T01:03:16;6.60;;;3.97;;
42700;SDS011;28316;49.504;8.526;2024-03-23T01:05:41;6.35;;;3.95;;
42700;SDS011;28316;49.504;8.526;2024-03-23T01:08:07;14.25;;;4.85;;
42700;SDS011;28316;49.504;8.526;2024-03-23T01:10:33;13.48;;;4.03;;
42700;SDS011;28316;49.504;8.526;2024-03-23T01:12:59;13.48;;;4.53;;
42700;SDS011;28316;49.504;8.526;2024-03-23T01:15:24;10.52;;;3.90;;
42700;SDS011;28316;49.504;8.526;2024-03-23T01:17:50;10.43;;;3.83;;
42700;SDS011;28316;49.504;8.526;2024-03-23T01:20:16;8.57;;;4.05;;
42700;SDS011;28316;49.504;8.526;2024-03-23T01:22:42;10.00;;;3.65;;
42700;SDS011;28316;49.504;8.526;2024-03-23T01:25:08;7.15;;;4.22;;
42700;SDS011;28316;49.504;8.526;2024-03-23T01:27:33;6.63;;;3.47;;
42700;SDS011;28316;49.504;8.526;2024-03-23T01:29:59;9.18;;;4.35;;
42700;SDS011;28316;49.504;8.526;2024-03-23T01:32:25;9.35;;;4.07;;
42700;SDS011;28316;49.504;8.526;2024-03-23T01:34:50;10.05;;;4.20;;
42700;SDS011;28316;49.504;8.526;2024-03-23T01:37:16;11.93;;;5.28;;
42700;SDS011;28316;49.504;8.526;2024-03-23T01:39:42;9.52;;;4.15;;
42700;SDS011;28316;49.504;8.526;2024-03-23T01:42:08;8.57;;;4.40;;
42700;SDS011;28316;49.504;8.526;2024-03-23T01:44:33;7.32;;;4.30;;
42700;SDS011;28316;49.504;8.526;2024-03-23T01:46:59;10.93;;;5.15;;
42700;SDS011;28316;49.504;8.526;2024-03-23T01:49:25;9.65;;;4.45;;
42700;SDS011;28316;49.504;8.526;2024-03-23T01:51:51;10.27;;;4.43;;
42700;SDS011;28316;49.504;8.526;2024-03-23T01:54:16;9.57;;;4.72;;
42700;SDS011;28316;49.504;8.526;2024-03-23T01:56:42;8.57;;;4.40;;
42700;SDS011;28316;49.504;8.526;2024-03-23T01:59:08;10.27;;;4.50;;
42700;SDS011;28316;49.504;8.526;2024-03-23T02:01:36;6.50;;;3.63;;
42700;SDS011;28316;49.504;8.526;2024-03-23T02:04:02;10.85;;;4.75;;
42700;SDS011;28316;49.504;8.526;2024-03-23T02:06:28;8.45;;;5.05;;
42700;SDS011;28316;49.504;8.526;2024-03-23T02:08:54;8.88;;;4.93;;
42700;SDS011;28316;49.504;8.526;2024-03-23T02:11:20;8.82;;;4.68;;
42700;SDS011;28316;49.504;8.526;2024-03-23T02:13:46;12.98;;;4.40;;
42700;SDS011;28316;49.504;8.526;2024-03-23T02:16:12;9.15;;;4.45;;
42700;SDS011;28316;49.504;8.526;2024-03-23T02:18:40;6.53;;;3.53;;
42700;SDS011;28316;49.504;8.526;2024-03-23T02:21:06;12.43;;;3.97;;
42700;SDS011;28316;49.504;8.526;2024-03-23T02:23:32;9.13;;;4.97;;
42700;SDS011;28316;49.504;8.526;2024-03-23T02:25:57;7.00;;;3.35;;
42700;SDS011;28316;49.504;8.526;2024-03-23T02:28:23;8.70;;;3.88;;
42700;SDS011;28316;49.504;8.526;2024-03-23T02:30:49;11.82;;;3.83;;
42700;SDS011;28316;49.504;8.526;2024-03-23T02:33:15;5.53;;;3.60;;
42700;SDS011;28316;49.504;8.526;2024-03-23T02:35:41;7.82;;;3.63;;
42700;SDS011;28316;49.504;8.526;2024-03-23T02:38:12;5.40;;;3.28;;
42700;SDS011;28316;49.504;8.526;2024-03-23T02:40:37;7.00;;;3.70;;
42700;SDS011;28316;49.504;8.526;2024-03-23T02:43:03;5.53;;;3.10;;
42700;SDS011;28316;49.504;8.526;2024-03-23T02:45:29;9.40;;;3.85;;
42700;SDS011;28316;49.504;8.526;2024-03-23T02:47:55;6.82;;;3.33;;
42700;SDS011;28316;49.504;8.526;2024-03-23T02:50:22;9.98;;;4.10;;
42700;SDS011;28316;49.504;8.526;2024-03-23T02:52:48;6.72;;;3.67;;
42700;SDS011;28316;49.504;8.526;2024-03-23T02:55:14;7.55;;;3.60;;
42700;SDS011;28316;49.504;8.526;2024-03-23T02:57:40;8.75;;;3.67;;
42700;SDS011;28316;49.504;8.526;2024-03-23T03:00:06;7.65;;;3.40;;
42700;SDS011;28316;49.504;8.526;2024-03-23T03:02:33;6.95;;;3.15;;
42700;SDS011;28316;49.504;8.526;2024-03-23T03:04:59;7.55;;;3.67;;
42700;SDS011;28316;49.504;8.526;2024-03-23T03:07:24;10.38;;;4.28;;
42700;SDS011;28316;49.504;8.526;2024-03-23T03:09:50;7.53;;;3.65;;
42700;SDS011;28316;49.504;8.526;2024-03-23T03:12:16;7.70;;;4.10;;
42700;SDS011;28316;49.504;8.526;2024-03-23T03:14:42;9.57;;;5.00;;
42700;SDS011;28316;49.504;8.526;2024-03-23T03:17:08;10.25;;;4.35;;
42700;SDS011;28316;49.504;8.526;2024-03-23T03:19:33;11.27;;;4.47;;
42700;SDS011;28316;49.504;8.526;2024-03-23T03:21:59;8.32;;;3.97;;
42700;SDS011;28316;49.504;8.526;2024-03-23T03:24:25;8.02;;;3.78;;
42700;SDS011;28316;49.504;8.526;2024-03-23T03:26:51;11.18;;;4.30;;
42700;SDS011;28316;49.504;8.526;2024-03-23T03:29:17;7.82;;;3.97;;
42700;SDS011;28316;49.504;8.526;2024-03-23T03:31:43;9.32;;;4.93;;
42700;SDS011;28316;49.504;8.526;2024-03-23T03:34:09;11.45;;;5.18;;
42700;SDS011;28316;49.504;8.526;2024-03-23T03:36:34;13.95;;;4.63;;
42700;SDS011;28316;49.504;8.526;2024-03-23T03:39:00;14.48;;;4.63;;
42700;SDS011;28316;49.504;8.526;2024-03-23T03:41:28;9.63;;;3.50;;
42700;SDS011;28316;49.504;8.526;2024-03-23T03:43:54;9.15;;;4.13;;
42700;SDS011;28316;49.504;8.526;2024-03-23T03:46:20;8.48;;;4.65;;
42700;SDS011;28316;49.504;8.526;2024-03-23T03:48:46;7.43;;;3.42;;
42700;SDS011;28316;49.504;8.526;2024-03-23T03:51:13;11.27;;;3.92;;
42700;SDS011;28316;49.504;8.526;2024-03-23T03:53:39;9.13;;;4.03;;
42700;SDS011;28316;49.504;8.526;2024-03-23T03:56:05;10.73;;;4.03;;
42700;SDS011;28316;49.504;8.526;2024-03-23T03:58:31;8.20;;;3.65;;
42700;SDS011;28316;49.504;8.526;2024-03-23T04:00:57;9.85;;;4.07;;
42700;SDS011;28316;49.504;8.526;2024-03-23T04:03:23;9.05;;;3.72;;
42700;SDS011;28316;49.504;8.526;2024-03-23T04:05:50;8.27;;;4.50;;
42700;SDS011;28316;49.504;8.526;2024-03-23T04:08:17;12.32;;;4.28;;
42700;SDS011;28316;49.504;8.526;2024-03-23T04:10:44;13.75;;;4.90;;
42700;SDS011;28316;49.504;8.526;2024-03-23T04:13:10;13.02;;;5.30;;
42700;SDS011;28316;49.504;8.526;2024-03-23T04:15:39;12.80;;;4.47;;
42700;SDS011;28316;49.504;8.526;2024-03-23T04:18:06;15.90;;;4.95;;
42700;SDS011;28316;49.504;8.526;2024-03-23T04:20:32;17.13;;;5.20;;
42700;SDS011;28316;49.504;8.526;2024-03-23T04:22:58;17.83;;;5.50;;
42700;SDS011;28316;49.504;8.526;2024-03-23T04:25:25;10.32;;;5.45;;
42700;SDS011;28316;49.504;8.526;2024-03-23T04:27:51;11.45;;;3.92;;
42700;SDS011;28316;49.504;8.526;2024-03-23T04:30:16;9.10;;;4.53;;
42700;SDS011;28316;49.504;8.526;2024-03-23T04:32:43;8.73;;;4.03;;
42700;SDS011;28316;49.504;8.526;2024-03-23T04:35:09;12.32;;;6.05;;
42700;SDS011;28316;49.504;8.526;2024-03-23T04:37:37;14.00;;;5.10;;
42700;SDS011;28316;49.504;8.526;2024-03-23T04:40:07;10.88;;;4.97;;
42700;SDS011;28316;49.504;8.526;2024-03-23T04:42:33;12.70;;;4.97;;
42700;SDS011;28316;49.504;8.526;2024-03-23T04:44:59;15.13;;;4.43;;
42700;SDS011;28316;49.504;8.526;2024-03-23T04:47:25;9.18;;;4.30;;
42700;SDS011;28316;49.504;8.526;2024-03-23T04:49:51;9.63;;;4.57;;
42700;SDS011;28316;49.504;8.526;2024-03-23T04:52:17;10.93;;;4.80;;
42700;SDS011;28316;49.504;8.526;2024-03-23T04:54:43;8.45;;;4.03;;
42700;SDS011;28316;49.504;8.526;2024-03-23T04:57:10;13.13;;;4.78;;
42700;SDS011;28316;49.504;8.526;2024-03-23T04:59:36;8.63;;;3.83;;
42700;SDS011;28316;49.504;8.526;2024-03-23T05:02:02;5.60;;;3.28;;
42700;SDS011;28316;49.504;8.526;2024-03-23T05:04:28;8.75;;;3.25;;
42700;SDS011;28316;49.504;8.526;2024-03-23T05:06:53;7.05;;;3.05;;
42700;SDS011;28316;49.504;8.526;2024-03-23T05:09:19;5.97;;;2.78;;
42700;SDS011;28316;49.504;8.526;2024-03-23T05:11:45;4.97;;;2.65;;
42700;SDS011;28316;49.504;8.526;2024-03-23T05:14:14;4.35;;;1.63;;
42700;SDS011;28316;49.504;8.526;2024-03-23T05:16:40;8.18;;;2.03;;
42700;SDS011;28316;49.504;8.526;2024-03-23T05:19:06;4.53;;;1.73;;
42700;SDS011;28316;49.504;8.526;2024-03-23T05:21:32;2.17;;;1.10;;
42700;SDS011;28316;49.504;8.526;2024-03-23T05:23:57;4.65;;;1.92;;
42700;SDS011;28316;49.504;8.526;2024-03-23T05:26:23;3.20;;;1.67;;
42700;SDS011;28316;49.504;8.526;2024-03-23T05:28:49;2.72;;;0.95;;
42700;SDS011;28316;49.504;8.526;2024-03-23T05:31:28;1.50;;;0.70;;
42700;SDS011;28316;49.504;8.526;2024-03-23T05:36:22;3.28;;;1.98;;
42700;SDS011;28316;49.504;8.526;2024-03-23T05:38:51;3.72;;;1.77;;
42700;SDS011;28316;49.504;8.526;2024-03-23T05:41:17;2.35;;;1.33;;
42700;SDS011;28316;49.504;8.526;2024-03-23T05:43:43;3.78;;;1.50;;
42700;SDS011;28316;49.504;8.526;2024-03-23T05:46:09;3.47;;;1.40;;
42700;SDS011;28316;49.504;8.526;2024-03-23T05:48:34;2.83;;;1.40;;
42700;SDS011;28316;49.504;8.526;2024-03-23T05:51:00;3.55;;;1.35;;
42700;SDS011;28316;49.504;8.526;2024-03-23T05:53:27;2.08;;;1.00;;
42700;SDS011;28316;49.504;8.526;2024-03-23T05:56:02;1.98;;;0.90;;
42700;SDS011;28316;49.504;8.526;2024-03-23T05:58:29;1.75;;;1.08;;
42700;SDS011;28316;49.504;8.526;2024-03-23T06:01:01;1.42;;;0.65;;
42700;SDS011;28316;49.504;8.526;2024-03-23T06:03:28;1.55;;;0.93;;
42700;SDS011;28316;49.504;8.526;2024-03-23T06:05:54;1.55;;;0.57;;
42700;SDS011;28316;49.504;8.526;2024-03-23T06:08:21;1.30;;;0.75;;
42700;SDS011;28316;49.504;8.526;2024-03-23T06:10:47;3.90;;;1.48;;
42700;SDS011;28316;49.504;8.526;2024-03-23T06:13:15;3.80;;;1.30;;
42700;SDS011;28316;49.504;8.526;2024-03-23T06:15:42;2.70;;;0.85;;
42700;SDS011;28316;49.504;8.526;2024-03-23T06:18:08;4.25;;;1.50;;
42700;SDS011;28316;49.504;8.526;2024-03-23T06:20:34;4.75;;;0.88;;
42700;SDS011;28316;49.504;8.526;2024-03-23T06:23:03;1.02;;;0.70;;
42700;SDS011;28316;49.504;8.526;2024-03-23T06:25:29;0.90;;;0.40;;
42700;SDS011;28316;49.504;8.526;2024-03-23T06:27:55;1.45;;;0.60;;
42700;SDS011;28316;49.504;8.526;2024-03-23T06:30:21;0.95;;;0.60;;
42700;SDS011;28316;49.504;8.526;2024-03-23T06:32:47;1.38;;;0.30;;
42700;SDS011;28316;49.504;8.526;2024-03-23T06:35:12;2.13;;;0.70;;
42700;SDS011;28316;49.504;8.526;2024-03-23T06:37:38;1.35;;;0.43;;
42700;SDS011;28316;49.504;8.526;2024-03-23T06:40:06;0.80;;;0.20;;
42700;SDS011;28316;49.504;8.526;2024-03-23T06:42:35;0.20;;;0.20;;
42700;SDS011;28316;49.504;8.526;2024-03-23T06:45:03;0.73;;;0.35;;
42700;SDS011;28316;49.504;8.526;2024-03-23T06:47:31;0.25;;;0.20;;
42700;SDS011;28316;49.504;8.526;2024-03-23T06:49:57;3.60;;;0.35;;
42700;SDS011;28316;49.504;8.526;2024-03-23T06:52:28;0.93;;;0.20;;
42700;SDS011;28316;49.504;8.526;2024-03-23T06:54:54;0.32;;;0.20;;
42700;SDS011;28316;49.504;8.526;2024-03-23T06:57:20;0.63;;;0.20;;
42700;SDS011;28316;49.504;8.526;2024-03-23T06:59:46;0.10;;;0.10;;
42700;SDS011;28316;49.504;8.526;2024-03-23T07:02:12;0.28;;;0.20;;
42700;SDS011;28316;49.504;8.526;2024-03-23T07:04:38;0.55;;;0.32;;
42700;SDS011;28316;49.504;8.526;2024-03-23T07:07:06;0.43;;;0.38;;
42700;SDS011;28316;49.504;8.526;2024-03-23T07:09:32;0.22;;;0.20;;
42700;SDS011;28316;49.504;8.526;2024-03-23T07:11:58;0.13;;;0.13;;
42700;SDS011;28316;49.504;8.526;2024-03-23T07:14:24;0.40;;;0.10;;
42700;SDS011;28316;49.504;8.526;2024-03-23T07:16:50;0.10;;;0.10;;
42700;SDS011;28316;49.504;8.526;2024-03-23T07:19:16;0.32;;;0.20;;
42700;SDS011;28316;49.504;8.526;2024-03-23T07:21:43;0.10;;;0.10;;
42700;SDS011;28316;49.504;8.526;2024-03-23T07:24:10;0.10;;;0.10;;
42700;SDS011;28316;49.504;8.526;2024-03-23T07:26:36;0.75;;;0.75;;
42700;SDS011;28316;49.504;8.526;2024-03-23T07:29:03;3.53;;;1.10;;
42700;SDS011;28316;49.504;8.526;2024-03-23T07:31:30;1.27;;;0.50;;
42700;SDS011;28316;49.504;8.526;2024-03-23T07:33:56;2.88;;;0.57;;
42700;SDS011;28316;49.504;8.526;2024-03-23T07:36:21;0.38;;;0.30;;
42700;SDS011;28316;49.504;8.526;2024-03-23T07:38:47;0.82;;;0.35;;
42700;SDS011;28316;49.504;8.526;2024-03-23T07:41:17;0.30;;;0.10;;
42700;SDS011;28316;49.504;8.526;2024-03-23T07:43:44;0.75;;;0.35;;
42700;SDS011;28316;49.504;8.526;2024-03-23T07:46:11;1.10;;;0.50;;
42700;SDS011;28316;49.504;8.526;2024-03-23T07:48:38;4.57;;;0.25;;
42700;SDS011;28316;49.504;8.526;2024-03-23T07:51:08;2.15;;;0.30;;
42700;SDS011;28316;49.504;8.526;2024-03-23T07:53:36;0.55;;;0.40;;
42700;SDS011;28316;49.504;8.526;2024-03-23T07:56:05;0.80;;;0.55;;
42700;SDS011;28316;49.504;8.526;2024-03-23T07:58:37;0.77;;;0.40;;
42700;SDS011;28316;49.504;8.526;2024-03-23T08:01:04;0.68;;;0.22;;
42700;SDS011;28316;49.504;8.526;2024-03-23T08:03:37;0.73;;;0.47;;
42700;SDS011;28316;49.504;8.526;2024-03-23T08:06:18;0.98;;;0.30;;
42700;SDS011;28316;49.504;8.526;2024-03-23T08:08:46;0.47;;;0.35;;
42700;SDS011;28316;49.504;8.526;2024-03-23T08:11:24;1.33;;;0.60;;
42700;SDS011;28316;49.504;8.526;2024-03-23T08:13:56;2.25;;;0.63;;
42700;SDS011;28316;49.504;8.526;2024-03-23T08:16:22;4.47;;;0.70;;
42700;SDS011;28316;49.504;8.526;2024-03-23T08:18:50;2.63;;;0.43;;
42700;SDS011;28316;49.504;8.526;2024-03-23T08:21:16;7.07;;;1.05;;
42700;SDS011;28316;49.504;8.526;2024-03-23T08:23:43;1.85;;;0.88;;
42700;SDS011;28316;49.504;8.526;2024-03-23T08:26:12;1.33;;;0.50;;
42700;SDS011;28316;49.504;8.526;2024-03-23T08:28:41;3.22;;;1.67;;
42700;SDS011;28316;49.504;8.526;2024-03-23T08:31:07;3.40;;;1.33;;
42700;SDS011;28316;49.504;8.526;2024-03-23T08:33:34;5.13;;;0.82;;
42700;SDS011;28316;49.504;8.526;2024-03-23T08:36:01;7.13;;;1.10;;
42700;SDS011;28316;49.504;8.526;2024-03-23T08:38:33;0.77;;;0.60;;
42700;SDS011;28316;49.504;8.526;2024-03-23T08:40:59;4.65;;;1.15;;
42700;SDS011;28316;49.504;8.526;2024-03-23T08:43:27;2.55;;;1.35;;
42700;SDS011;28316;49.504;8.526;2024-03-23T08:46:06;3.70;;;0.68;;
42700;SDS011;28316;49.504;8.526;2024-03-23T08:48:40;1.27;;;0.82;;
42700;SDS011;28316;49.504;8.526;2024-03-23T08:51:11;4.28;;;1.00;;
42700;SDS011;28316;49.504;8.526;2024-03-23T08:53:39;4.50;;;0.90;;
42700;SDS011;28316;49.504;8.526;2024-03-23T08:56:05;2.85;;;1.30;;
42700;SDS011;28316;49.504;8.526;2024-03-23T08:58:33;4.65;;;1.42;;
42700;SDS011;28316;49.504;8.526;2024-03-23T09:01:03;3.08;;;0.93;;
42700;SDS011;28316;49.504;8.526;2024-03-23T09:03:32;1.27;;;0.52;;
42700;SDS011;28316;49.504;8.526;2024-03-23T09:05:59;1.50;;;1.25;;
42700;SDS011;28316;49.504;8.526;2024-03-23T09:08:25;2.72;;;0.82;;
42700;SDS011;28316;49.504;8.526;2024-03-23T09:10:51;2.88;;;1.25;;
42700;SDS011;28316;49.504;8.526;2024-03-23T09:13:18;3.03;;;0.98;;
42700;SDS011;28316;49.504;8.526;2024-03-23T09:15:48;6.30;;;1.08;;
42700;SDS011;28316;49.504;8.526;2024-03-23T09:18:21;3.03;;;1.15;;
42700;SDS011;28316;49.504;8.526;2024-03-23T09:20:47;0.95;;;0.68;;
42700;SDS011;28316;49.504;8.526;2024-03-23T09:23:13;4.47;;;0.80;;
42700;SDS011;28316;49.504;8.526;2024-03-23T09:25:40;3.05;;;0.93;;
42700;SDS011;28316;49.504;8.526;2024-03-23T09:28:06;8.68;;;1.13;;
42700;SDS011;28316;49.504;8.526;2024-03-23T09:30:35;3.28;;;1.08;;
42700;SDS011;28316;49.504;8.526;2024-03-23T09:33:07;3.72;;;1.20;;
42700;SDS011;28316;49.504;8.526;2024-03-23T09:35:37;3.05;;;1.45;;
42700;SDS011;28316;49.504;8.526;2024-03-23T09:38:04;5.80;;;2.05;;
42700;SDS011;28316;49.504;8.526;2024-03-23T09:40:30;4.72;;;1.10;;
42700;SDS011;28316;49.504;8.526;2024-03-23T09:42:56;5.43;;;0.90;;
42700;SDS011;28316;49.504;8.526;2024-03-23T09:45:26;5.97;;;1.10;;
42700;SDS011;28316;49.504;8.526;2024-03-23T09:47:54;11.75;;;1.63;;
42700;SDS011;28316;49.504;8.526;2024-03-23T09:50:21;2.88;;;1.38;;
42700;SDS011;28316;49.504;8.526;2024-03-23T09:52:47;8.15;;;1.10;;
42700;SDS011;28316;49.504;8.526;2024-03-23T09:55:14;2.63;;;1.65;;
42700;SDS011;28316;49.504;8.526;2024-03-23T09:57:40;2.40;;;0.98;;
42700;SDS011;28316;49.504;8.526;2024-03-23T10:00:07;3.38;;;0.88;;
42700;SDS011;28316;49.504;8.526;2024-03-23T10:02:34;3.60;;;1.30;;
42700;SDS011;28316;49.504;8.526;2024-03-23T10:05:00;7.07;;;1.70;;
42700;SDS011;28316;49.504;8.526;2024-03-23T10:07:27;6.07;;;1.42;;
42700;SDS011;28316;49.504;8.526;2024-03-23T10:09:53;3.92;;;1.33;;
42700;SDS011;28316;49.504;8.526;2024-03-23T10:12:20;3.15;;;0.82;;
42700;SDS011;28316;49.504;8.526;2024-03-23T10:14:46;5.50;;;1.63;;
42700;SDS011;28316;49.504;8.526;2024-03-23T10:17:13;6.65;;;1.17;;
42700;SDS011;28316;49.504;8.526;2024-03-23T10:19:50;1.65;;;0.65;;
42700;SDS011;28316;49.504;8.526;2024-03-23T10:22:21;8.15;;;0.88;;
42700;SDS011;28316;49.504;8.526;2024-03-23T10:24:49;3.20;;;0.93;;
42700;SDS011;28316;49.504;8.526;2024-03-23T10:27:15;2.88;;;1.00;;
42700;SDS011;28316;49.504;8.526;2024-03-23T10:29:48;4.28;;;0.60;;
42700;SDS011;28316;49.504;8.526;2024-03-23T10:32:15;6.15;;;1.00;;
42700;SDS011;28316;49.504;8.526;2024-03-23T10:34:42;5.05;;;0.73;;
42700;SDS011;28316;49.504;8.526;2024-03-23T10:37:08;3.50;;;1.17;;
42700;SDS011;28316;49.504;8.526;2024-03-23T10:39:36;3.95;;;1.38;;
42700;SDS011;28316;49.504;8.526;2024-03-23T10:42:04;4.68;;;0.95;;
42700;SDS011;28316;49.504;8.526;2024-03-23T10:44:37;1.50;;;0.80;;
42700;SDS011;28316;49.504;8.526;2024-03-23T10:47:04;1.75;;;1.02;;
42700;SDS011;28316;49.504;8.526;2024-03-23T10:49:34;8.25;;;2.38;;
42700;SDS011;28316;49.504;8.526;2024-03-23T10:52:01;4.57;;;0.85;;
42700;SDS011;28316;49.504;8.526;2024-03-23T10:54:29;9.63;;;1.40;;
42700;SDS011;28316;49.504;8.526;2024-03-23T10:56:57;2.30;;;1.25;;
42700;SDS011;28316;49.504;8.526;2024-03-23T10:59:27;0.98;;;0.30;;
42700;SDS011;28316;49.504;8.526;2024-03-23T11:01:59;9.23;;;0.88;;
42700;SDS011;28316;49.504;8.526;2024-03-23T11:04:31;4.72;;;0.80;;
42700;SDS011;28316;49.504;8.526;2024-03-23T11:09:49;0.43;;;0.30;;
42700;SDS011;28316;49.504;8.526;2024-03-23T11:17:30;3.08;;;1.35;;
42700;SDS011;28316;49.504;8.526;2024-03-23T11:22:45;3.28;;;0.68;;
42700;SDS011;28316;49.504;8.526;2024-03-23T11:30:26;7.43;;;1.25;;
42700;SDS011;28316;49.504;8.526;2024-03-23T11:32:56;6.22;;;2.50;;
42700;SDS011;28316;49.504;8.526;2024-03-23T11:40:38;0.98;;;0.52;;
42700;SDS011;28316;49.504;8.526;2024-03-23T11:43:09;2.63;;;1.40;;
42700;SDS011;28316;49.504;8.526;2024-03-23T11:45:45;1.70;;;0.65;;
42700;SDS011;28316;49.504;8.526;2024-03-23T11:48:14;3.80;;;1.58;;
42700;SDS011;28316;49.504;8.526;2024-03-23T11:50:45;1.13;;;0.60;;
42700;SDS011;28316;49.504;8.526;2024-03-23T11:53:14;3.97;;;0.75;;
42700;SDS011;28316;49.504;8.526;2024-03-23T11:58:24;2.03;;;0.77;;
42700;SDS011;28316;49.504;8.526;2024-03-23T12:01:01;3.80;;;0.52;;
42700;SDS011;28316;49.504;8.526;2024-03-23T12:03:29;0.73;;;0.52;;
42700;SDS011;28316;49.504;8.526;2024-03-23T12:05:58;1.98;;;0.77;;
42700;SDS011;28316;49.504;8.526;2024-03-23T12:08:30;1.40;;;0.45;;
42700;SDS011;28316;49.504;8.526;2024-03-23T12:11:08;2.90;;;1.77;;
42700;SDS011;28316;49.504;8.526;2024-03-23T12:13:36;1.73;;;0.70;;
42700;SDS011;28316;49.504;8.526;2024-03-23T12:18:40;4.32;;;1.05;;
42700;SDS011;28316;49.504;8.526;2024-03-23T12:21:07;3.65;;;1.30;;
42700;SDS011;28316;49.504;8.526;2024-03-23T12:23:34;1.10;;;0.88;;
42700;SDS011;28316;49.504;8.526;2024-03-23T12:26:00;10.25;;;1.73;;
42700;SDS011;28316;49.504;8.526;2024-03-23T12:28:27;2.72;;;1.10;;
42700;SDS011;28316;49.504;8.526;2024-03-23T12:30:53;3.47;;;1.15;;
42700;SDS011;28316;49.504;8.526;2024-03-23T12:33:22;2.20;;;0.82;;
42700;SDS011;28316;49.504;8.526;2024-03-23T12:35:48;2.92;;;1.10;;
42700;SDS011;28316;49.504;8.526;2024-03-23T12:38:18;1.63;;;0.88;;
42700;SDS011;28316;49.504;8.526;2024-03-23T12:40:47;3.20;;;0.68;;
42700;SDS011;28316;49.504;8.526;2024-03-23T12:43:14;7.43;;;1.88;;
42700;SDS011;28316;49.504;8.526;2024-03-23T12:45:40;4.90;;;1.30;;
42700;SDS011;28316;49.504;8.526;2024-03-23T12:48:06;1.13;;;0.50;;
42700;SDS011;28316;49.504;8.526;2024-03-23T12:50:32;1.27;;;0.50;;
42700;SDS011;28316;49.504;8.526;2024-03-23T12:52:58;1.20;;;0.52;;
42700;SDS011;28316;49.504;8.526;2024-03-23T12:55:24;9.98;;;1.08;;
42700;SDS011;28316;49.504;8.526;2024-03-23T12:57:49;3.85;;;0.50;;
42700;SDS011;28316;49.504;8.526;2024-03-23T13:00:15;1.55;;;1.10;;
42700;SDS011;28316;49.504;8.526;2024-03-23T13:02:42;3.63;;;0.70;;
42700;SDS011;28316;49.504;8.526;2024-03-23T13:05:08;0.15;;;0.15;;
42700;SDS011;28316;49.504;8.526;2024-03-23T13:07:34;3.80;;;1.65;;
42700;SDS011;28316;49.504;8.526;2024-03-23T13:10:00;0.15;;;0.10;;
42700;SDS011;28316;49.504;8.526;2024-03-23T13:12:27;0.47;;;0.15;;
42700;SDS011;28316;49.504;8.526;2024-03-23T13:14:53;2.50;;;0.30;;
42700;SDS011;28316;49.504;8.526;2024-03-23T13:17:18;0.68;;;0.28;;
42700;SDS011;28316;49.504;8.526;2024-03-23T13:19:44;1.48;;;0.43;;
42700;SDS011;28316;49.504;8.526;2024-03-23T13:22:10;1.08;;;0.52;;
42700;SDS011;28316;49.504;8.526;2024-03-23T13:24:36;0.65;;;0.20;;
42700;SDS011;28316;49.504;8.526;2024-03-23T13:27:03;4.15;;;0.32;;
42700;SDS011;28316;49.504;8.526;2024-03-23T13:29:30;2.75;;;0.50;;
42700;SDS011;28316;49.504;8.526;2024-03-23T13:31:56;0.60;;;0.32;;
42700;SDS011;28316;49.504;8.526;2024-03-23T13:34:21;4.60;;;0.40;;
42700;SDS011;28316;49.504;8.526;2024-03-23T13:36:47;1.52;;;0.88;;
42700;SDS011;28316;49.504;8.526;2024-03-23T13:39:14;0.32;;;0.30;;
42700;SDS011;28316;49.504;8.526;2024-03-23T13:41:41;1.90;;;0.68;;
42700;SDS011;28316;49.504;8.526;2024-03-23T13:44:09;0.10;;;0.10;;
42700;SDS011;28316;49.504;8.526;2024-03-23T13:46:40;4.50;;;0.50;;
42700;SDS011;28316;49.504;8.526;2024-03-23T13:49:18;2.42;;;0.32;;
42700;SDS011;28316;49.504;8.526;2024-03-23T13:51:51;0.40;;;0.30;;
42700;SDS011;28316;49.504;8.526;2024-03-23T13:54:19;1.00;;;0.43;;
42700;SDS011;28316;49.504;8.526;2024-03-23T13:56:47;3.60;;;0.38;;
42700;SDS011;28316;49.504;8.526;2024-03-23T13:59:14;0.95;;;0.30;;
42700;SDS011;28316;49.504;8.526;2024-03-23T14:01:40;3.17;;;0.63;;
42700;SDS011;28316;49.504;8.526;2024-03-23T14:04:05;0.68;;;0.40;;
42700;SDS011;28316;49.504;8.526;2024-03-23T14:06:31;0.75;;;0.40;;
42700;SDS011;28316;49.504;8.526;2024-03-23T14:08:57;3.17;;;0.50;;
42700;SDS011;28316;49.504;8.526;2024-03-23T14:11:23;0.50;;;0.17;;
42700;SDS011;28316;49.504;8.526;2024-03-23T14:13:50;1.63;;;0.40;;
42700;SDS011;28316;49.504;8.526;2024-03-23T14:16:16;0.40;;;0.20;;
42700;SDS011;28316;49.504;8.526;2024-03-23T14:18:42;4.45;;;0.30;;
42700;SDS011;28316;49.504;8.526;2024-03-23T14:21:08;0.40;;;0.10;;
42700;SDS011;28316;49.504;8.526;2024-03-23T14:23:35;1.65;;;0.30;;
42700;SDS011;28316;49.504;8.526;2024-03-23T14:26:01;0.25;;;0.10;;
42700;SDS011;28316;49.504;8.526;2024-03-23T14:28:27;4.70;;;0.40;;
42700;SDS011;28316;49.504;8.526;2024-03-23T14:30:54;1.15;;;0.50;;
42700;SDS011;28316;49.504;8.526;2024-03-23T14:33:21;0.20;;;0.17;;
42700;SDS011;28316;49.504;8.526;2024-03-23T14:35:54;0.98;;;0.20;;
42700;SDS011;28316;49.504;8.526;2024-03-23T14:38:23;2.15;;;1.00;;
42700;SDS011;28316;49.504;8.526;2024-03-23T14:40:49;2.50;;;0.40;;
42700;SDS011;28316;49.504;8.526;2024-03-23T14:43:16;0.85;;;0.20;;
42700;SDS011;28316;49.504;8.526;2024-03-23T14:48:38;0.43;;;0.28;;
42700;SDS011;28316;49.504;8.526;2024-03-23T14:51:04;0.10;;;0.10;;
42700;SDS011;28316;49.504;8.526;2024-03-23T14:53:33;1.25;;;0.63;;
42700;SDS011;28316;49.504;8.526;2024-03-23T14:56:00;0.00;;;0.00;;
42700;SDS011;28316;49.504;8.526;2024-03-23T14:58:27;0.85;;;0.35;;
42700;SDS011;28316;49.504;8.526;2024-03-23T15:01:01;0.50;;;0.25;;
42700;SDS011;28316;49.504;8.526;2024-03-23T15:03:34;0.55;;;0.50;;
42700;SDS011;28316;49.504;8.526;2024-03-23T15:06:00;0.63;;;0.52;;
42700;SDS011;28316;49.504;8.526;2024-03-23T15:08:27;0.43;;;0.28;;
42700;SDS011;28316;49.504;8.526;2024-03-23T15:10:53;0.52;;;0.20;;
42700;SDS011;28316;49.504;8.526;2024-03-23T15:13:19;2.15;;;0.30;;
42700;SDS011;28316;49.504;8.526;2024-03-23T15:15:47;1.52;;;0.32;;
42700;SDS011;28316;49.504;8.526;2024-03-23T15:18:16;0.82;;;0.40;;
42700;SDS011;28316;49.504;8.526;2024-03-23T15:20:57;0.57;;;0.38;;
42700;SDS011;28316;49.504;8.526;2024-03-23T15:23:37;0.95;;;0.80;;
42700;SDS011;28316;49.504;8.526;2024-03-23T15:26:03;1.85;;;0.35;;
42700;SDS011;28316;49.504;8.526;2024-03-23T15:28:31;1.38;;;0.63;;
42700;SDS011;28316;49.504;8.526;2024-03-23T15:31:03;3.53;;;0.77;;
42700;SDS011;28316;49.504;8.526;2024-03-23T15:33:30;1.98;;;0.32;;
42700;SDS011;28316;49.504;8.526;2024-03-23T15:35:59;1.17;;;0.35;;
42700;SDS011;28316;49.504;8.526;2024-03-23T15:38:25;0.70;;;0.40;;
42700;SDS011;28316;49.504;8.526;2024-03-23T15:40:51;0.30;;;0.30;;
42700;SDS011;28316;49.504;8.526;2024-03-23T15:43:18;1.80;;;0.88;;
42700;SDS011;28316;49.504;8.526;2024-03-23T15:45:44;1.02;;;0.47;;
42700;SDS011;28316;49.504;8.526;2024-03-23T15:48:19;0.77;;;0.25;;
42700;SDS011;28316;49.504;8.526;2024-03-23T15:50:51;2.15;;;0.47;;
42700;SDS011;28316;49.504;8.526;2024-03-23T15:53:22;4.95;;;0.60;;
42700;SDS011;28316;49.504;8.526;2024-03-23T15:55:55;0.10;;;0.10;;
42700;SDS011;28316;49.504;8.526;2024-03-23T15:58:28;1.85;;;0.40;;
42700;SDS011;28316;49.504;8.526;2024-03-23T16:01:00;0.17;;;0.17;;
42700;SDS011;28316;49.504;8.526;2024-03-23T16:03:31;0.45;;;0.25;;
42700;SDS011;28316;49.504;8.526;2024-03-23T16:05:58;0.50;;;0.28;;
42700;SDS011;28316;49.504;8.526;2024-03-23T16:08:26;0.68;;;0.50;;
42700;SDS011;28316;49.504;8.526;2024-03-23T16:10:52;0.05;;;0.05;;
42700;SDS011;28316;49.504;8.526;2024-03-23T16:13:19;0.38;;;0.25;;